createdAt,value
2022-08-12T00:02:43.878Z,1.70
2022-08-12T00:05:30.226Z,1.90
2022-08-12T00:08:16.463Z,1.45
2022-08-12T00:11:09.873Z,2.05
2022-08-12T00:13:57.781Z,1.65
2022-08-12T00:16:46.316Z,1.83
2022-08-12T00:19:32.065Z,2.13
2022-08-12T00:22:18.846Z,1.83
2022-08-12T00:25:05.033Z,1.85
2022-08-12T00:27:50.614Z,1.90
2022-08-12T00:30:36.054Z,1.80
2022-08-12T00:33:22.076Z,1.80
2022-08-12T00:36:30.681Z,1.92
2022-08-12T00:39:16.538Z,1.80
2022-08-12T00:42:02.038Z,1.50
2022-08-12T00:44:28.948Z,1.75
2022-08-12T00:47:00.363Z,1.63
2022-08-12T00:49:28.544Z,1.80
2022-08-12T00:52:10.082Z,1.80
2022-08-12T00:54:59.220Z,1.58
2022-08-12T00:57:27.376Z,2.00
2022-08-12T00:59:56.656Z,1.98
2022-08-12T01:02:35.082Z,1.80
2022-08-12T01:05:28.925Z,2.10
2022-08-12T01:08:14.541Z,1.92
2022-08-12T01:11:01.897Z,1.88
2022-08-12T01:13:29.833Z,1.80
2022-08-12T01:15:58.933Z,1.90
2022-08-12T01:18:28.440Z,1.58
2022-08-12T01:21:11.895Z,2.20
2022-08-12T01:24:00.585Z,1.83
2022-08-12T01:26:48.035Z,2.10
2022-08-12T01:29:26.261Z,1.90
2022-08-12T01:31:57.901Z,1.90
2022-08-12T01:34:36.967Z,2.00
2022-08-12T01:37:05.577Z,1.80
2022-08-12T01:39:34.237Z,2.08
2022-08-12T01:42:07.773Z,2.05
2022-08-12T01:44:35.662Z,1.70
2022-08-12T01:47:39.246Z,1.90
2022-08-12T01:50:36.959Z,2.00
2022-08-12T01:53:06.497Z,2.00
2022-08-12T01:55:37.190Z,1.80
2022-08-12T01:58:19.080Z,2.20
2022-08-12T02:00:56.086Z,2.30
2022-08-12T02:04:07.742Z,2.17
2022-08-12T02:07:07.101Z,2.08
2022-08-12T02:10:09.092Z,2.10
2022-08-12T02:13:48.467Z,2.15
2022-08-12T02:16:38.318Z,2.50
2022-08-12T02:19:22.834Z,2.60
2022-08-12T02:22:01.781Z,3.03
2022-08-12T02:24:33.029Z,3.20
2022-08-12T02:27:00.181Z,2.45
2022-08-12T02:29:26.990Z,2.30
2022-08-12T02:31:54.042Z,2.80
2022-08-12T02:34:23.102Z,2.70
2022-08-12T02:36:54.645Z,2.95
2022-08-12T02:39:21.668Z,2.80
2022-08-12T02:41:49.046Z,3.60
2022-08-12T02:44:16.303Z,2.83
2022-08-12T02:46:50.111Z,3.08
2022-08-12T02:49:25.615Z,3.03
2022-08-12T02:51:52.527Z,2.30
2022-08-12T02:54:20.420Z,2.53
2022-08-12T02:56:50.492Z,2.53
2022-08-12T02:59:20.104Z,3.03
2022-08-12T03:01:55.365Z,3.00
2022-08-12T03:04:30.735Z,3.00
2022-08-12T03:07:16.883Z,3.00
2022-08-12T03:10:04.301Z,2.92
2022-08-12T03:12:41.433Z,3.38
2022-08-12T03:15:18.232Z,3.50
2022-08-12T03:18:25.457Z,3.08
2022-08-12T03:20:54.547Z,3.40
2022-08-12T03:23:30.102Z,3.50
2022-08-12T03:26:00.758Z,3.70
2022-08-12T03:28:49.126Z,3.67
2022-08-12T03:31:17.576Z,3.67
2022-08-12T03:36:23.865Z,3.30
2022-08-12T03:39:10.315Z,3.22
2022-08-12T03:41:42.155Z,3.00
2022-08-12T03:44:36.502Z,3.00
2022-08-12T03:47:34.676Z,2.70
2022-08-12T03:53:05.439Z,2.65
2022-08-12T03:55:50.933Z,2.67
2022-08-12T03:58:36.529Z,3.17
2022-08-12T04:01:03.240Z,2.70
2022-08-12T04:03:48.942Z,2.95
2022-08-12T04:06:16.272Z,2.78
2022-08-12T04:09:00.840Z,3.35
2022-08-12T04:11:47.340Z,3.35
2022-08-12T04:14:19.790Z,3.05
2022-08-12T04:16:50.874Z,2.80
2022-08-12T04:19:18.940Z,2.88
2022-08-12T04:22:02.071Z,3.03
2022-08-12T04:24:35.002Z,2.80
2022-08-12T04:27:08.585Z,3.08
2022-08-12T04:30:30.377Z,3.08
2022-08-12T04:32:25.200Z,2.75
2022-08-12T04:34:52.187Z,3.05
2022-08-12T04:37:18.838Z,2.63
2022-08-12T04:39:46.366Z,2.97
2022-08-12T04:42:13.349Z,2.60
2022-08-12T04:44:40.209Z,2.70
2022-08-12T04:47:08.795Z,3.22
2022-08-12T04:49:35.918Z,2.78
2022-08-12T04:52:03.296Z,3.28
2022-08-12T04:54:31.313Z,3.22
2022-08-12T04:57:03.488Z,3.30
2022-08-12T04:59:47.108Z,3.25
2022-08-12T05:02:21.751Z,3.30
2022-08-12T05:04:56.303Z,3.40
2022-08-12T05:07:28.302Z,3.55
2022-08-12T05:10:00.380Z,3.30
2022-08-12T05:12:34.740Z,2.72
2022-08-12T05:15:01.801Z,2.88
2022-08-12T05:17:28.661Z,3.25
2022-08-12T05:19:57.281Z,3.47
2022-08-12T05:22:26.349Z,3.20
2022-08-12T05:24:53.206Z,3.10
2022-08-12T05:27:19.878Z,3.45
2022-08-12T05:30:06.407Z,3.50
2022-08-12T05:32:35.438Z,3.30
2022-08-12T05:35:06.905Z,3.45
2022-08-12T05:37:36.347Z,3.17
2022-08-12T05:40:09.897Z,2.80
2022-08-12T05:42:36.868Z,3.00
2022-08-12T05:45:03.821Z,2.72
2022-08-12T05:47:36.689Z,2.97
2022-08-12T05:50:17.204Z,2.95
2022-08-12T05:52:44.128Z,3.08
2022-08-12T05:55:11.754Z,2.92
2022-08-12T05:57:39.123Z,3.60
2022-08-12T06:00:06.857Z,2.92
2022-08-12T06:02:35.192Z,2.92
2022-08-12T06:05:02.621Z,3.00
2022-08-12T06:08:02.328Z,3.23
2022-08-12T06:10:31.678Z,2.83
2022-08-12T06:13:07.159Z,3.20
2022-08-12T06:15:38.305Z,3.17
2022-08-12T06:18:13.627Z,2.65
2022-08-12T06:20:43.524Z,3.08
2022-08-12T06:23:11.461Z,2.90
2022-08-12T06:25:38.112Z,3.40
2022-08-12T06:28:17.523Z,3.10
2022-08-12T06:30:57.251Z,2.63
2022-08-12T06:33:24.845Z,3.00
2022-08-12T06:35:55.763Z,2.92
2022-08-12T06:38:26.866Z,2.47
2022-08-12T06:41:13.989Z,2.78
2022-08-12T06:44:05.532Z,2.83
2022-08-12T06:46:29.517Z,2.85
2022-08-12T06:48:59.088Z,3.80
2022-08-12T06:51:30.414Z,2.90
2022-08-12T06:53:58.654Z,2.83
2022-08-12T06:56:45.977Z,2.80
2022-08-12T06:59:14.793Z,3.00
2022-08-12T07:01:51.137Z,2.80
2022-08-12T07:07:10.295Z,2.65
2022-08-12T07:10:04.500Z,2.65
2022-08-12T07:12:27.873Z,2.50
2022-08-12T07:14:54.975Z,2.42
2022-08-12T07:17:21.713Z,2.80
2022-08-12T07:19:50.059Z,2.60
2022-08-12T07:22:16.833Z,2.35
2022-08-12T07:25:03.894Z,2.30
2022-08-12T07:27:31.161Z,2.50
2022-08-12T07:30:04.351Z,2.63
2022-08-12T07:32:31.916Z,2.50
2022-08-12T07:34:58.761Z,2.45
2022-08-12T07:37:25.369Z,2.63
2022-08-12T07:40:00.420Z,2.40
2022-08-12T07:42:29.528Z,2.45
2022-08-12T07:44:56.608Z,2.60
2022-08-12T07:47:24.169Z,2.38
2022-08-12T07:50:05.200Z,2.80
2022-08-12T07:52:34.650Z,2.13
2022-08-12T07:57:28.180Z,2.30
2022-08-12T07:59:55.943Z,2.88
2022-08-12T08:02:30.710Z,2.50
2022-08-12T08:04:58.256Z,2.20
2022-08-12T08:07:30.491Z,2.15
2022-08-12T08:09:59.191Z,2.47
2022-08-12T08:12:48.760Z,2.30
2022-08-12T08:15:16.059Z,2.22
2022-08-12T08:18:02.715Z,2.65
2022-08-12T08:20:34.709Z,2.22
2022-08-12T08:23:05.819Z,1.92
2022-08-12T08:25:36.335Z,2.28
2022-08-12T08:28:06.981Z,2.10
2022-08-12T08:30:34.382Z,2.10
2022-08-12T08:33:01.152Z,2.20
2022-08-12T08:35:43.197Z,2.20
2022-08-12T08:38:32.691Z,2.22
2022-08-12T08:42:16.939Z,2.05
2022-08-12T08:44:10.901Z,2.20
2022-08-12T08:46:38.547Z,2.05
2022-08-12T08:49:06.228Z,2.25
2022-08-12T08:51:33.583Z,2.10
2022-08-12T08:54:00.209Z,1.80
2022-08-12T08:56:29.385Z,2.60
2022-08-12T08:58:57.668Z,2.00
2022-08-12T09:01:24.747Z,2.00
2022-08-12T09:05:07.719Z,1.60
2022-08-12T09:06:39.760Z,2.40
2022-08-12T09:09:12.786Z,2.00
2022-08-12T09:12:10.697Z,2.00
2022-08-12T09:14:51.027Z,2.60
2022-08-12T09:17:21.314Z,1.60
2022-08-12T09:22:38.190Z,2.25
2022-08-12T09:25:07.214Z,2.22
2022-08-12T09:28:04.133Z,1.95
2022-08-12T09:30:41.143Z,1.98
2022-08-12T09:33:19.352Z,1.90
2022-08-12T09:36:04.676Z,1.67
2022-08-12T09:38:35.383Z,1.75
2022-08-12T09:42:08.765Z,1.63
2022-08-12T09:44:07.846Z,1.80
2022-08-12T09:46:54.919Z,1.85
2022-08-12T09:49:24.951Z,2.00
2022-08-12T09:51:54.350Z,1.55
2022-08-12T09:54:33.934Z,1.55
2022-08-12T09:58:45.868Z,1.67
2022-08-12T10:00:17.836Z,1.60
2022-08-12T10:03:06.027Z,1.70
2022-08-12T10:06:26.882Z,1.60
2022-08-12T10:08:30.544Z,1.50
2022-08-12T10:11:20.003Z,1.33
2022-08-12T10:13:48.677Z,1.70
2022-08-12T10:16:22.099Z,1.42
2022-08-12T10:18:58.104Z,1.63
2022-08-12T10:21:36.060Z,1.60
2022-08-12T10:24:06.446Z,1.60
2022-08-12T10:26:52.129Z,1.60
2022-08-12T10:30:03.670Z,1.73
2022-08-12T10:35:13.865Z,1.70
2022-08-12T10:38:37.253Z,13.82
2022-08-12T10:40:32.946Z,3.75
2022-08-12T10:43:19.828Z,2.25
2022-08-12T10:45:49.715Z,1.83
2022-08-12T10:48:33.391Z,2.42
2022-08-12T10:52:02.962Z,2.10
2022-08-12T10:53:52.723Z,2.00
2022-08-12T10:56:19.646Z,1.80
2022-08-12T10:58:48.698Z,1.90
2022-08-12T11:01:49.140Z,2.03
2022-08-12T11:04:27.371Z,2.17
2022-08-12T11:07:08.939Z,2.53
2022-08-12T11:09:56.388Z,2.72
2022-08-12T11:12:57.874Z,2.55
2022-08-12T11:15:20.549Z,1.95
2022-08-12T11:17:53.456Z,1.95
2022-08-12T11:20:24.478Z,2.10
2022-08-12T11:23:03.892Z,2.10
2022-08-12T11:25:56.020Z,2.75
2022-08-12T11:28:33.352Z,2.28
2022-08-12T11:31:03.220Z,2.25
2022-08-12T11:34:05.997Z,2.30
2022-08-12T11:36:17.289Z,1.90
2022-08-12T11:38:50.508Z,2.03
2022-08-12T11:41:31.163Z,2.25
2022-08-12T11:44:07.231Z,1.95
2022-08-12T11:46:51.233Z,2.03
2022-08-12T11:49:30.688Z,1.98
2022-08-12T11:51:58.824Z,2.20
2022-08-12T11:54:25.516Z,1.60
2022-08-12T11:56:59.510Z,2.40
2022-08-12T12:02:18.828Z,1.80
2022-08-12T12:04:47.043Z,1.83
2022-08-12T12:07:22.649Z,2.10
2022-08-12T12:10:00.428Z,1.60
2022-08-12T12:12:27.076Z,1.92
2022-08-12T12:14:56.010Z,2.00
2022-08-12T12:17:25.139Z,2.20
2022-08-12T12:19:53.309Z,1.73
2022-08-12T12:22:23.475Z,1.60
2022-08-12T12:24:58.151Z,2.13
2022-08-12T12:27:39.323Z,1.75
2022-08-12T12:30:19.806Z,1.63
2022-08-12T12:32:56.241Z,1.50
2022-08-12T12:36:18.660Z,2.00
2022-08-12T12:38:12.081Z,1.80
2022-08-12T12:40:41.119Z,2.00
2022-08-12T12:43:09.046Z,1.85
2022-08-12T12:48:05.803Z,2.03
2022-08-12T12:50:47.648Z,1.85
2022-08-12T12:54:05.815Z,1.60
2022-08-12T12:56:15.572Z,2.15
2022-08-12T12:58:43.601Z,1.80
2022-08-12T13:04:01.762Z,1.83
2022-08-12T13:06:31.002Z,1.70
2022-08-12T13:09:03.341Z,2.20
2022-08-12T13:11:42.132Z,1.80
2022-08-12T13:14:27.955Z,1.75
2022-08-12T13:16:57.589Z,1.70
2022-08-12T13:19:37.931Z,1.45
2022-08-12T13:22:23.387Z,2.03
2022-08-12T13:24:56.029Z,1.52
2022-08-12T13:27:36.634Z,2.10
2022-08-12T13:30:11.353Z,1.67
2022-08-12T13:32:41.503Z,1.80
2022-08-12T13:35:20.229Z,1.80
2022-08-12T13:37:57.375Z,1.70
2022-08-12T13:40:29.293Z,1.58
2022-08-12T13:43:01.822Z,1.73
2022-08-12T13:45:30.197Z,2.10
2022-08-12T13:48:05.009Z,1.52
2022-08-12T13:50:33.268Z,1.52
2022-08-12T13:53:06.283Z,1.60
2022-08-12T13:55:59.803Z,1.83
2022-08-12T13:58:30.631Z,1.80
2022-08-12T14:00:58.674Z,1.77
2022-08-12T14:03:28.278Z,1.95
2022-08-12T14:06:15.590Z,1.83
2022-08-12T14:08:43.254Z,1.77
2022-08-12T14:11:12.373Z,1.48
2022-08-12T14:14:03.288Z,1.60
2022-08-12T14:16:37.666Z,1.52
2022-08-12T14:19:22.312Z,1.80
2022-08-12T14:21:59.425Z,1.77
2022-08-12T14:24:30.710Z,1.38
2022-08-12T14:27:01.837Z,1.63
2022-08-12T14:29:55.673Z,1.40
2022-08-12T14:32:17.669Z,1.65
2022-08-12T14:34:46.954Z,1.52
2022-08-12T14:37:56.136Z,1.73
2022-08-12T14:40:01.239Z,1.75
2022-08-12T14:42:28.375Z,1.60
2022-08-12T14:44:59.817Z,1.75
2022-08-12T14:47:29.221Z,2.00
2022-08-12T14:50:37.106Z,1.67
2022-08-12T14:58:31.864Z,1.73
2022-08-12T15:01:17.561Z,1.63
2022-08-12T15:03:57.122Z,1.38
2022-08-12T15:06:38.955Z,1.70
2022-08-12T15:09:12.408Z,1.40
2022-08-12T15:11:54.842Z,1.60
2022-08-12T15:14:27.613Z,1.92
2022-08-12T15:16:57.261Z,1.45
2022-08-12T15:20:28.059Z,1.50
2022-08-12T15:22:37.872Z,1.80
2022-08-12T15:25:07.597Z,1.40
2022-08-12T15:28:04.031Z,1.58
2022-08-12T15:30:30.879Z,1.45
2022-08-12T15:32:57.686Z,1.48
2022-08-12T15:35:27.503Z,1.55
2022-08-12T15:38:09.343Z,1.48
2022-08-12T15:40:46.869Z,1.75
2022-08-12T15:44:16.561Z,1.60
2022-08-12T15:46:04.756Z,1.25
2022-08-12T15:48:32.876Z,1.55
2022-08-12T15:51:02.971Z,1.70
2022-08-12T15:53:51.274Z,1.60
2022-08-12T15:56:22.265Z,1.70
2022-08-12T15:58:59.152Z,1.40
2022-08-12T16:01:34.970Z,1.83
2022-08-12T16:04:02.949Z,1.52
2022-08-12T16:07:04.352Z,1.77
2022-08-12T16:09:56.478Z,1.27
2022-08-12T16:12:11.194Z,1.70
2022-08-12T16:14:38.894Z,1.45
2022-08-12T16:17:09.033Z,1.45
2022-08-12T16:20:04.370Z,1.73
2022-08-12T16:22:29.317Z,1.35
2022-08-12T16:24:57.206Z,1.63
2022-08-12T16:27:26.110Z,1.70
2022-08-12T16:29:57.395Z,1.70
2022-08-12T16:32:31.793Z,1.38
2022-08-12T16:34:59.868Z,1.70
2022-08-12T16:40:14.530Z,2.03
2022-08-12T16:42:54.190Z,1.50
2022-08-12T16:46:04.411Z,1.60
2022-08-12T16:48:34.686Z,1.65
2022-08-12T16:51:12.658Z,1.35
2022-08-12T16:53:44.037Z,2.15
2022-08-12T16:56:14.906Z,1.50
2022-08-12T16:58:42.024Z,1.40
2022-08-12T17:01:13.976Z,1.40
2022-08-12T17:03:52.552Z,1.27
2022-08-12T17:06:22.647Z,1.17
2022-08-12T17:09:02.708Z,1.60
2022-08-12T17:11:32.832Z,1.40
2022-08-12T17:13:59.941Z,1.08
2022-08-12T17:16:30.394Z,1.20
2022-08-12T17:19:03.095Z,1.50
2022-08-12T17:21:40.623Z,1.35
2022-08-12T17:24:15.711Z,1.58
2022-08-12T17:26:44.990Z,1.23
2022-08-12T17:29:31.908Z,1.30
2022-08-12T17:32:10.138Z,1.38
2022-08-12T17:34:55.364Z,1.10
2022-08-12T17:37:22.157Z,1.45
2022-08-12T17:40:13.644Z,1.10
2022-08-12T17:42:37.885Z,1.30
2022-08-12T17:45:15.600Z,1.17
2022-08-12T17:48:01.390Z,1.10
2022-08-12T17:50:32.011Z,1.10
2022-08-12T17:53:02.753Z,1.30
2022-08-12T17:55:44.305Z,1.20
2022-08-12T17:58:21.643Z,1.58
2022-08-12T18:01:03.253Z,1.20
2022-08-12T18:04:13.749Z,1.10
2022-08-12T18:06:17.944Z,1.08
2022-08-12T18:08:54.591Z,1.00
2022-08-12T18:12:06.028Z,1.10
2022-08-12T18:14:29.065Z,1.17
2022-08-12T18:17:00.587Z,1.05
2022-08-12T18:20:04.197Z,1.05
2022-08-12T18:22:17.682Z,1.02
2022-08-12T18:25:00.731Z,1.35
2022-08-12T18:27:43.491Z,1.20
2022-08-12T18:30:16.434Z,1.20
2022-08-12T18:33:04.044Z,0.98
2022-08-12T18:35:47.702Z,1.55
2022-08-12T18:38:22.453Z,1.10
2022-08-12T18:41:10.046Z,1.05
2022-08-12T18:44:00.191Z,1.17
2022-08-12T18:46:54.435Z,1.15
2022-08-12T18:49:38.040Z,1.20
2022-08-12T18:52:05.857Z,1.10
2022-08-12T18:54:49.111Z,1.20
2022-08-12T18:57:45.550Z,1.10
2022-08-12T19:00:22.218Z,1.10
2022-08-12T19:02:51.896Z,1.10
2022-08-12T19:05:20.286Z,1.20
2022-08-12T19:08:00.888Z,0.90
2022-08-12T19:10:31.056Z,1.08
2022-08-12T19:13:24.271Z,1.08
2022-08-12T19:15:57.476Z,1.13
2022-08-12T19:18:29.178Z,1.48
2022-08-12T19:20:57.587Z,0.90
2022-08-12T19:23:25.196Z,1.05
2022-08-12T19:26:03.186Z,1.00
2022-08-12T19:31:55.934Z,1.10
2022-08-12T19:37:27.024Z,1.00
2022-08-12T19:40:10.248Z,0.95
2022-08-12T19:43:00.604Z,1.00
2022-08-12T19:45:43.711Z,0.90
2022-08-12T19:48:18.329Z,0.80
2022-08-12T19:50:50.382Z,0.88
2022-08-12T19:53:23.944Z,0.63
2022-08-12T19:55:52.916Z,0.75
2022-08-12T19:58:20.483Z,0.90
2022-08-12T20:00:53.121Z,0.90
2022-08-12T20:03:39.988Z,0.80
2022-08-12T20:06:16.109Z,0.77
2022-08-12T20:08:55.922Z,0.90
2022-08-12T20:12:11.336Z,0.70
2022-08-12T20:14:17.786Z,0.90
2022-08-12T20:16:54.426Z,0.80
2022-08-12T20:20:15.166Z,0.77
2022-08-12T20:22:23.933Z,0.90
2022-08-12T20:24:56.998Z,0.80
2022-08-12T20:29:57.161Z,1.00
2022-08-12T20:32:37.656Z,0.77
2022-08-12T20:35:18.297Z,0.80
2022-08-12T20:38:07.325Z,0.80
2022-08-12T20:40:33.893Z,1.00
2022-08-12T20:43:06.586Z,0.82
2022-08-12T20:45:50.706Z,0.90
2022-08-12T20:48:18.039Z,0.93
2022-08-12T20:50:53.895Z,1.00
2022-08-12T20:53:33.093Z,0.70
2022-08-12T20:56:22.190Z,0.80
2022-08-12T20:59:00.058Z,0.70
2022-08-12T21:01:29.241Z,1.00
2022-08-12T21:04:23.786Z,1.05
2022-08-12T21:07:09.329Z,0.88
2022-08-12T21:09:47.216Z,0.68
2022-08-12T21:12:27.399Z,0.70
2022-08-12T21:15:18.007Z,0.70
2022-08-12T21:18:08.858Z,0.68
2022-08-12T21:20:35.165Z,0.80
2022-08-12T21:23:06.068Z,0.80
2022-08-12T21:25:44.659Z,1.00
2022-08-12T21:28:14.361Z,0.82
2022-08-12T21:31:10.569Z,0.70
2022-08-12T21:33:31.577Z,0.70
2022-08-12T21:36:02.625Z,0.93
2022-08-12T21:38:34.571Z,0.90
2022-08-12T21:41:06.705Z,0.80
2022-08-12T21:43:42.918Z,0.85
2022-08-12T21:46:14.987Z,1.00
2022-08-12T21:49:03.990Z,0.90
2022-08-12T21:51:50.316Z,0.80
2022-08-12T21:54:27.354Z,0.80
2022-08-12T21:56:54.050Z,0.88
2022-08-12T21:59:21.894Z,0.85
2022-08-12T22:01:49.612Z,1.00
2022-08-12T22:04:36.610Z,0.90
2022-08-12T22:07:04.561Z,0.82
2022-08-12T22:09:43.486Z,0.95
2022-08-12T22:12:29.146Z,0.93
2022-08-12T22:14:55.975Z,0.90
2022-08-12T22:17:33.989Z,0.88
2022-08-12T22:20:17.304Z,0.90
2022-08-12T22:22:56.032Z,1.05
2022-08-12T22:25:24.307Z,0.90
2022-08-12T22:28:12.150Z,1.10
2022-08-12T22:30:57.571Z,0.80
2022-08-12T22:33:24.786Z,0.90
2022-08-12T22:35:59.674Z,0.80
2022-08-12T22:38:29.087Z,1.00
2022-08-12T22:41:32.467Z,1.10
2022-08-12T22:44:22.341Z,0.90
2022-08-12T22:47:03.307Z,1.00
2022-08-12T22:49:37.305Z,1.15
2022-08-12T22:52:18.483Z,0.90
2022-08-12T22:55:02.593Z,1.10
2022-08-12T22:57:49.756Z,0.80
2022-08-12T23:00:24.479Z,0.90
2022-08-12T23:02:58.407Z,0.88
2022-08-12T23:05:36.730Z,0.90
2022-08-12T23:08:17.906Z,0.90
2022-08-12T23:10:45.061Z,1.10
2022-08-12T23:13:43.564Z,1.00
2022-08-12T23:16:28.619Z,0.85
2022-08-12T23:19:09.483Z,1.00
2022-08-12T23:22:04.198Z,0.98
2022-08-12T23:24:34.999Z,0.70
2022-08-12T23:27:21.552Z,0.88
2022-08-12T23:29:59.407Z,0.80
2022-08-12T23:32:37.698Z,1.00
2022-08-12T23:35:06.888Z,1.00
2022-08-12T23:37:47.864Z,0.90
2022-08-12T23:40:22.311Z,0.95
2022-08-12T23:42:50.962Z,0.90
2022-08-12T23:45:20.147Z,1.00
2022-08-12T23:47:59.902Z,0.90
2022-08-12T23:50:34.125Z,1.00
2022-08-12T23:53:05.407Z,0.90
2022-08-12T23:55:38.181Z,0.80
2022-08-12T23:58:20.784Z,1.00
